EDLW/DTM METAR and TAF weather

Enter ICAO airport designator
Station Type Date Time Source
EDLW METAR 2019/02/23 03:20 UTC NOAA

EDLW 230320Z AUTO 10005KT 9999 // NCD 02/02 Q1038


Station Type Date Time Source
EDLW Decoded METAR 2019/02/23 03:20 UTC NOAA

Dortmund / Wickede, Germany (EDLW) 51-31N 007-37E
Feb 22, 2019 - 10:20 PM EST / 2019.02.23 0320 UTC
Wind: from the E (100 degrees) at 6 MPH (5 KT):0
Visibility: greater than 7 mile(s):0
Temperature: 35 F (2 C)
Windchill: 30 F (-1 C):1
Dew Point: 35 F (2 C)
Relative Humidity: 100%
Pressure (altimeter): 30.65 in. Hg (1038 hPa)
ob: EDLW 230320Z AUTO 10005KT 9999 // NCD 02/02 Q1038
cycle: 3

Station Type Date Time Source
EDLW TAF 2019/02/22 21:58 UTC NOAA

TAF EDLW 222149Z 2221/2318 CNL


Example: see airport list